Time;durP1;ratioP1;P1;durP2;ratioP2;P2;SDS_P1;SDS_P2;PMS_P1;PMS_P2;Temp;Humidity;BMP_temperature;BMP_pressure;BME280_temperature;BME280_humidity;BME280_pressure;Samples;Min_cycle;Max_cycle;Signal;HPM_P1;HPM_P2
2022/11/20 00:00:51;;;;;;;2.47;0.88;;;6.30;97.00;;;;;;4931789;28;20615;-73
2022/11/20 00:03:17;;;;;;;2.28;1.05;;;6.50;95.80;;;;;;4932427;28;20061;-73
2022/11/20 00:05:43;;;;;;;3.80;1.40;;;6.60;96.30;;;;;;4932203;29;20031;-73
2022/11/20 00:08:09;;;;;;;4.68;1.02;;;6.50;96.10;;;;;;4934247;28;20034;-73
2022/11/20 00:10:39;;;;;;;3.92;1.73;;;6.50;96.30;;;;;;4935287;28;20133;-73
2022/11/20 00:13:05;;;;;;;4.82;1.77;;;6.40;96.70;;;;;;4941113;28;20533;-73
2022/11/20 00:15:31;;;;;;;3.13;1.10;;;6.40;97.30;;;;;;4936122;28;20099;-73
2022/11/20 00:17:57;;;;;;;3.50;1.30;;;6.20;97.50;;;;;;4958004;28;20031;-73
2022/11/20 00:20:23;;;;;;;7.10;2.35;;;6.10;97.80;;;;;;4956452;28;20028;-73
2022/11/20 00:22:49;;;;;;;5.15;2.08;;;6.10;98.20;;;;;;4957088;28;20110;-73
2022/11/20 00:25:15;;;;;;;4.20;1.13;;;5.90;97.70;;;;;;4944669;28;20518;-73
2022/11/20 00:27:41;;;;;;;2.97;0.98;;;6.20;96.30;;;;;;4938094;29;20032;-73
2022/11/20 00:30:07;;;;;;;3.50;0.93;;;6.60;95.60;;;;;;4947772;28;20034;-73
2022/11/20 00:32:33;;;;;;;2.95;1.40;;;6.70;95.50;;;;;;4954239;28;20031;-73
2022/11/20 00:34:58;;;;;;;4.00;1.60;;;6.60;96.10;;;;;;4937671;28;20024;-73
2022/11/20 00:37:24;;;;;;;3.53;1.95;;;6.50;96.40;;;;;;4937089;28;20486;-73
2022/11/20 00:39:50;;;;;;;4.03;1.88;;;6.40;96.80;;;;;;4937626;28;20040;-72
2022/11/20 00:42:15;;;;;;;5.10;2.30;;;6.30;97.20;;;;;;4948175;28;20035;-73
2022/11/20 00:44:41;;;;;;;3.53;0.90;;;6.10;97.70;;;;;;4949143;28;20041;-73
2022/11/20 00:47:07;;;;;;;2.42;1.00;;;5.90;98.20;;;;;;4947845;28;20059;-73
2022/11/20 00:49:32;;;;;;;2.22;0.90;;;5.60;98.10;;;;;;4937256;28;20038;-73
2022/11/20 00:51:58;;;;;;;2.47;0.47;;;5.70;98.20;;;;;;4937702;29;20032;-73
2022/11/20 00:54:24;;;;;;;1.33;0.75;;;5.70;97.00;;;;;;4942003;28;20077;-73
2022/11/20 00:56:49;;;;;;;3.35;1.10;;;5.70;97.10;;;;;;4956789;28;20031;-73
2022/11/20 00:59:15;;;;;;;3.00;1.40;;;5.70;97.50;;;;;;4957582;28;20035;-73
2022/11/20 01:01:41;;;;;;;2.75;1.38;;;5.70;98.00;;;;;;4941197;28;20091;-73
2022/11/20 01:04:06;;;;;;;1.90;0.82;;;5.70;98.80;;;;;;4936667;29;20447;-73
2022/11/20 01:06:37;;;;;;;3.95;1.33;;;5.60;97.90;;;;;;4936748;28;20106;-73
2022/11/20 01:09:10;;;;;;;2.85;1.60;;;5.30;98.60;;;;;;4937846;28;20186;-73
2022/11/20 01:11:38;;;;;;;2.92;1.40;;;5.20;99.90;;;;;;4956003;28;20086;-73
2022/11/20 01:14:06;;;;;;;1.92;0.82;;;5.30;99.60;;;;;;4936790;28;20431;-73
2022/11/20 01:16:38;;;;;;;2.97;1.33;;;5.30;98.40;;;;;;4940624;28;20026;-73
2022/11/20 01:19:06;;;;;;;1.50;0.73;;;5.30;97.80;;;;;;4954738;28;20048;-73
2022/11/20 01:21:34;;;;;;;3.55;0.73;;;5.30;97.90;;;;;;4956266;28;20035;-73
2022/11/20 01:24:01;;;;;;;1.95;0.82;;;5.40;97.40;;;;;;4954817;28;20042;-73
2022/11/20 01:26:32;;;;;;;1.13;0.50;;;5.60;97.00;;;;;;4939974;28;20032;-73
2022/11/20 01:28:59;;;;;;;2.03;0.65;;;5.60;97.10;;;;;;4936374;28;20034;-73
2022/11/20 01:31:29;;;;;;;0.93;0.40;;;5.60;97.00;;;;;;4936649;29;20038;-73
2022/11/20 01:33:57;;;;;;;1.90;0.75;;;5.70;97.20;;;;;;4936333;29;20047;-73
2022/11/20 01:36:25;;;;;;;1.35;0.50;;;5.70;97.50;;;;;;4936534;28;20431;-73
2022/11/20 01:38:53;;;;;;;1.30;0.57;;;5.60;97.60;;;;;;4936168;29;20031;-73
2022/11/20 01:44:04;;;;;;;2.60;0.85;;;5.40;98.80;;;;;;4935452;28;20406;-73
2022/11/20 01:46:33;;;;;;;3.53;1.30;;;5.30;98.90;;;;;;4944271;28;20474;-73
2022/11/20 01:49:03;;;;;;;4.18;1.92;;;5.30;99.00;;;;;;4937159;28;20019;-73
2022/11/20 01:51:39;;;;;;;3.92;1.70;;;5.30;99.10;;;;;;4952055;28;20478;-73
2022/11/20 01:54:12;;;;;;;4.93;2.10;;;5.20;99.00;;;;;;4936018;28;20043;-73
2022/11/20 01:56:42;;;;;;;5.57;1.40;;;5.20;99.10;;;;;;4943889;28;20374;-73
2022/11/20 01:59:12;;;;;;;3.53;1.30;;;5.10;99.90;;;;;;4939176;28;20074;-73
2022/11/20 02:01:38;;;;;;;5.95;2.10;;;5.10;99.90;;;;;;4955225;28;20055;-73
2022/11/20 02:04:06;;;;;;;5.07;2.13;;;5.30;99.50;;;;;;4939467;28;20035;-73
2022/11/20 02:06:40;;;;;;;4.38;2.15;;;5.20;99.40;;;;;;4937917;28;20073;-73
2022/11/20 02:09:05;;;;;;;5.28;2.40;;;5.10;99.80;;;;;;4948042;28;20470;-73
2022/11/20 02:11:31;;;;;;;5.53;2.83;;;5.00;99.80;;;;;;4936625;28;20043;-72
2022/11/20 02:13:58;;;;;;;4.28;2.15;;;5.10;99.90;;;;;;4937856;28;20027;-73
2022/11/20 02:16:27;;;;;;;6.00;1.70;;;4.90;99.90;;;;;;4957983;28;20030;-73
2022/11/20 02:18:55;;;;;;;4.28;1.70;;;4.80;99.90;;;;;;4942814;28;20031;-73
2022/11/20 02:21:36;;;;;;;5.53;1.85;;;4.60;99.90;;;;;;4936560;28;20024;-73
2022/11/20 02:24:02;;;;;;;4.95;1.80;;;4.70;99.90;;;;;;4954068;28;20031;-73
2022/11/20 02:26:31;;;;;;;4.65;2.38;;;4.80;99.90;;;;;;4954937;28;20031;-73
2022/11/20 02:29:00;;;;;;;3.80;1.83;;;4.90;99.90;;;;;;4953599;28;20038;-73
2022/11/20 02:31:25;;;;;;;4.25;2.13;;;4.90;99.90;;;;;;4956744;28;20483;-73
2022/11/20 02:33:58;;;;;;;4.55;1.85;;;4.90;99.90;;;;;;4952973;28;20035;-73
2022/11/20 02:36:27;;;;;;;5.95;1.90;;;4.80;99.90;;;;;;4938179;28;20031;-73
2022/11/20 02:38:53;;;;;;;4.50;2.17;;;4.80;99.90;;;;;;4945953;28;20398;-73
2022/11/20 02:41:18;;;;;;;5.75;1.90;;;4.50;99.90;;;;;;4935993;28;20394;-73
2022/11/20 02:43:44;;;;;;;4.68;1.70;;;4.70;99.90;;;;;;4934819;28;20126;-73
2022/11/20 02:46:10;;;;;;;3.42;1.40;;;4.70;99.80;;;;;;4953062;28;20695;-73
2022/11/20 02:48:35;;;;;;;4.25;1.60;;;4.80;99.30;;;;;;4954934;28;20034;-73
2022/11/20 02:51:01;;;;;;;3.55;1.27;;;5.00;99.70;;;;;;4954986;28;20082;-73
2022/11/20 02:53:27;;;;;;;2.53;1.02;;;4.90;99.90;;;;;;4954749;28;20035;-73
2022/11/20 02:55:52;;;;;;;4.88;1.63;;;4.70;99.90;;;;;;4954691;29;20031;-73
2022/11/20 02:58:18;;;;;;;3.97;1.73;;;4.70;99.90;;;;;;4954421;29;20056;-73
2022/11/20 03:00:44;;;;;;;3.88;1.70;;;4.70;99.90;;;;;;4954494;28;20126;-73
2022/11/20 03:03:09;;;;;;;3.38;1.40;;;4.70;99.90;;;;;;4953432;29;20478;-73
2022/11/20 03:05:35;;;;;;;3.75;1.77;;;4.60;99.90;;;;;;4935059;28;20034;-72
2022/11/20 03:08:01;;;;;;;3.58;1.30;;;4.80;99.90;;;;;;4935507;29;20024;-72
2022/11/20 03:10:26;;;;;;;3.53;1.60;;;4.70;99.90;;;;;;4935347;29;20380;-72
2022/11/20 03:12:55;;;;;;;3.90;1.88;;;4.60;99.90;;;;;;4935479;29;20036;-73
2022/11/20 03:15:23;;;;;;;4.03;1.58;;;4.60;99.80;;;;;;4935116;28;20041;-73
2022/11/20 03:17:48;;;;;;;3.97;1.00;;;4.60;99.90;;;;;;4948863;28;20062;-73
2022/11/20 03:20:14;;;;;;;1.33;0.68;;;4.60;99.90;;;;;;4936964;28;20044;-73
2022/11/20 03:22:40;;;;;;;1.77;0.70;;;4.90;98.60;;;;;;4953301;28;20051;-73
2022/11/20 03:25:06;;;;;;;2.08;0.75;;;5.10;98.10;;;;;;4953601;28;20041;-73
2022/11/20 03:27:34;;;;;;;3.13;1.10;;;5.20;98.00;;;;;;4949180;28;20040;-73
2022/11/20 03:29:59;;;;;;;2.42;1.00;;;5.20;98.30;;;;;;4935407;29;20043;-73
2022/11/20 03:32:25;;;;;;;3.80;0.98;;;5.10;98.50;;;;;;4941171;28;20198;-73
2022/11/20 03:34:51;;;;;;;2.25;0.90;;;5.00;98.80;;;;;;4939095;29;20032;-73
2022/11/20 03:37:16;;;;;;;2.30;0.85;;;5.00;98.90;;;;;;4938869;28;20032;-73
2022/11/20 03:39:42;;;;;;;2.78;0.80;;;5.00;98.40;;;;;;4938618;29;20084;-73
2022/11/20 03:42:44;;;;;;;3.42;1.35;;;4.90;99.30;;;;;;4952618;28;20035;-73
2022/11/20 03:44:55;;;;;;;2.45;1.30;;;4.80;99.30;;;;;;4957167;28;20039;-73
2022/11/20 03:47:21;;;;;;;1.35;0.65;;;4.90;98.80;;;;;;4954262;28;20063;-73
2022/11/20 03:49:46;;;;;;;1.17;0.55;;;4.90;98.40;;;;;;4944463;28;20453;-73
2022/11/20 03:52:12;;;;;;;2.15;0.88;;;4.90;98.30;;;;;;4946335;28;20404;-73
2022/11/20 03:54:37;;;;;;;2.03;0.60;;;4.90;98.50;;;;;;4938242;29;20047;-73
2022/11/20 03:57:03;;;;;;;1.88;0.57;;;5.20;97.60;;;;;;4953766;28;20031;-73
2022/11/20 03:59:29;;;;;;;1.88;0.65;;;5.20;97.70;;;;;;4956838;28;20043;-73
2022/11/20 04:01:54;;;;;;;2.47;1.00;;;5.40;97.20;;;;;;4956527;28;20063;-73
2022/11/20 04:04:20;;;;;;;1.50;0.73;;;5.60;96.60;;;;;;4938917;28;20360;-73
2022/11/20 04:06:46;;;;;;;3.53;0.85;;;5.80;96.20;;;;;;4943903;28;20035;-72
2022/11/20 04:09:12;;;;;;;1.73;0.65;;;6.10;95.70;;;;;;4950399;28;20027;-72
2022/11/20 04:11:40;;;;;;;2.53;0.82;;;5.90;96.00;;;;;;4939423;28;20031;-73
2022/11/20 04:14:12;;;;;;;1.60;0.63;;;5.90;96.00;;;;;;4939353;29;20043;-73
2022/11/20 04:16:37;;;;;;;1.58;0.68;;;5.80;96.00;;;;;;4950653;28;20039;-73
2022/11/20 04:19:06;;;;;;;1.25;0.47;;;5.70;96.30;;;;;;4946158;28;20035;-73
2022/11/20 04:21:32;;;;;;;1.75;0.57;;;5.60;96.40;;;;;;4933890;28;20068;-72
2022/11/20 04:23:58;;;;;;;1.13;0.55;;;5.30;96.70;;;;;;4949545;28;20482;-72
2022/11/20 04:26:26;;;;;;;1.35;0.70;;;5.30;96.60;;;;;;4936494;28;20059;-72
2022/11/20 04:28:52;;;;;;;2.03;0.77;;;5.10;96.80;;;;;;4931795;28;20110;-73
2022/11/20 04:31:23;;;;;;;0.80;0.43;;;5.00;97.00;;;;;;4947139;28;20042;-72
2022/11/20 04:33:49;;;;;;;0.93;0.50;;;4.80;97.40;;;;;;4950532;28;20328;-73
2022/11/20 04:36:26;;;;;;;0.88;0.40;;;4.90;97.30;;;;;;4945777;28;20063;-73
2022/11/20 04:38:57;;;;;;;2.47;1.00;;;4.80;97.50;;;;;;4932108;29;20043;-73
2022/11/20 04:41:25;;;;;;;2.95;1.38;;;4.80;98.10;;;;;;4933233;28;20035;-73
2022/11/20 04:43:53;;;;;;;2.10;0.60;;;4.80;98.40;;;;;;4932438;29;20074;-73
2022/11/20 04:46:20;;;;;;;1.92;0.80;;;4.60;97.80;;;;;;4941381;28;20124;-73
2022/11/20 04:48:46;;;;;;;1.15;0.60;;;4.60;98.20;;;;;;4950883;28;20435;-72
2022/11/20 04:51:12;;;;;;;1.17;0.40;;;4.60;97.90;;;;;;4949728;28;20039;-73
2022/11/20 04:53:38;;;;;;;1.73;0.77;;;4.50;98.00;;;;;;4934664;28;20032;-73
2022/11/20 04:56:07;;;;;;;1.88;0.85;;;4.70;97.80;;;;;;4940407;28;20031;-73
2022/11/20 04:58:33;;;;;;;2.58;1.33;;;4.80;98.00;;;;;;4934081;28;20036;-73
2022/11/20 05:01:20;;;;;;;3.78;1.30;;;4.70;98.60;;;;;;4936524;28;20047;-73
2022/11/20 05:03:46;;;;;;;2.47;1.23;;;4.50;98.60;;;;;;4950027;28;20031;-73
2022/11/20 05:06:13;;;;;;;0.98;0.50;;;4.60;98.40;;;;;;4950582;28;20027;-73
2022/11/20 05:08:40;;;;;;;1.35;0.65;;;4.40;98.10;;;;;;4951220;28;20254;-73
2022/11/20 05:11:14;;;;;;;2.72;1.13;;;4.50;98.30;;;;;;4950364;28;20057;-72
2022/11/20 05:13:40;;;;;;;;;;;4.60;98.50;;;;;;4950993;28;20508;-72
2022/11/20 05:16:12;;;;;;;3.08;1.50;;;4.60;98.80;;;;;;4950504;28;20017;-73
2022/11/20 05:18:38;;;;;;;2.20;1.20;;;4.50;99.30;;;;;;4950804;28;20057;-73
2022/11/20 05:21:04;;;;;;;2.70;1.20;;;4.40;99.30;;;;;;4940550;28;20032;-73
2022/11/20 05:23:31;;;;;;;2.85;1.00;;;4.30;99.40;;;;;;4932095;28;20343;-73
2022/11/20 05:25:58;;;;;;;1.35;0.68;;;4.20;99.30;;;;;;4931626;29;20054;-73
2022/11/20 05:28:24;;;;;;;1.05;0.70;;;4.20;99.40;;;;;;4938898;28;20030;-73
2022/11/20 05:30:50;;;;;;;1.10;0.68;;;4.20;99.00;;;;;;4949266;28;20501;-73
2022/11/20 05:33:17;;;;;;;2.53;0.93;;;4.20;99.40;;;;;;4949911;28;20682;-73
2022/11/20 05:35:43;;;;;;;2.85;1.20;;;4.20;99.60;;;;;;4941141;29;20046;-73
2022/11/20 05:38:08;;;;;;;2.17;0.90;;;4.20;99.80;;;;;;4941755;28;20039;-72
2022/11/20 05:40:34;;;;;;;0.93;0.50;;;4.20;99.90;;;;;;4935406;28;20039;-72
2022/11/20 05:43:00;;;;;;;2.28;0.80;;;4.10;99.90;;;;;;4945747;28;20475;-73
2022/11/20 05:45:26;;;;;;;1.00;0.50;;;4.00;99.90;;;;;;4930563;28;20050;-73
2022/11/20 05:47:52;;;;;;;1.48;0.55;;;4.00;99.90;;;;;;4939536;28;20568;-73
2022/11/20 05:50:18;;;;;;;2.63;0.63;;;4.20;99.20;;;;;;4932560;28;20055;-73
2022/11/20 05:52:44;;;;;;;1.67;0.63;;;4.50;97.90;;;;;;4945886;28;20043;-73
2022/11/20 05:55:10;;;;;;;2.75;0.70;;;4.70;97.80;;;;;;4930688;29;20583;-72
2022/11/20 05:57:35;;;;;;;3.13;1.13;;;4.80;97.70;;;;;;4940959;28;20592;-72
2022/11/20 06:00:02;;;;;;;2.22;0.60;;;5.40;96.00;;;;;;4930256;29;20115;-73
2022/11/20 06:02:28;;;;;;;2.75;0.50;;;5.20;97.20;;;;;;4930663;28;20039;-73
2022/11/20 06:04:53;;;;;;;0.65;0.20;;;4.80;97.50;;;;;;4929047;28;20043;-72
2022/11/20 06:07:19;;;;;;;3.13;0.60;;;4.80;97.50;;;;;;4926980;29;20031;-72
2022/11/20 06:09:45;;;;;;;3.35;0.60;;;5.00;96.90;;;;;;4929795;28;20118;-73
2022/11/20 06:12:10;;;;;;;1.02;0.57;;;5.10;96.40;;;;;;4941579;28;20031;-73
2022/11/20 06:14:36;;;;;;;0.90;0.40;;;5.20;96.90;;;;;;4947664;28;20610;-72
2022/11/20 06:17:02;;;;;;;2.28;0.63;;;5.00;97.00;;;;;;4950172;28;20031;-73
2022/11/20 06:19:27;;;;;;;3.47;0.63;;;5.00;97.00;;;;;;4930754;29;20495;-72
2022/11/20 06:21:53;;;;;;;1.17;0.60;;;5.10;96.50;;;;;;4930229;29;20032;-73
2022/11/20 06:24:18;;;;;;;0.82;0.40;;;5.20;96.50;;;;;;4930838;28;20028;-73
2022/11/20 06:26:44;;;;;;;1.00;0.32;;;5.10;96.60;;;;;;4929646;29;20035;-73
2022/11/20 06:29:11;;;;;;;1.48;0.50;;;4.80;97.10;;;;;;4947709;28;20027;-72
2022/11/20 06:31:37;;;;;;;1.13;0.60;;;4.70;97.30;;;;;;4933047;28;20063;-73
2022/11/20 06:34:05;;;;;;;1.15;0.60;;;5.00;96.70;;;;;;4928116;29;20051;-72
2022/11/20 06:36:31;;;;;;;1.38;0.40;;;5.00;96.50;;;;;;4943580;28;20033;-73
2022/11/20 06:38:57;;;;;;;1.23;0.50;;;5.00;96.50;;;;;;4927088;28;20126;-73
2022/11/20 06:41:23;;;;;;;1.73;0.60;;;4.70;96.90;;;;;;4927335;28;20110;-72
2022/11/20 06:43:50;;;;;;;1.40;0.40;;;4.80;96.70;;;;;;4926263;29;20032;-72
2022/11/20 06:46:20;;;;;;;2.05;0.70;;;4.80;96.90;;;;;;4927154;29;20501;-73
2022/11/20 06:48:46;;;;;;;1.48;0.45;;;4.90;97.10;;;;;;4943268;28;20031;-73
2022/11/20 06:51:13;;;;;;;2.35;0.70;;;5.00;96.60;;;;;;4946250;28;20106;-72
2022/11/20 06:53:39;;;;;;;2.25;0.80;;;4.90;97.00;;;;;;4944746;28;20398;-73
2022/11/20 06:56:05;;;;;;;2.65;0.90;;;4.80;97.50;;;;;;4929324;28;20040;-72
2022/11/20 06:58:33;;;;;;;1.33;0.57;;;5.00;96.70;;;;;;4937111;28;20375;-73
2022/11/20 07:01:04;;;;;;;1.35;0.70;;;5.20;96.50;;;;;;4942409;28;20047;-73
2022/11/20 07:03:30;;;;;;;2.22;0.70;;;5.30;96.70;;;;;;4927344;28;20044;-73
2022/11/20 07:05:58;;;;;;;1.17;0.60;;;5.30;96.20;;;;;;4948105;28;20034;-72
2022/11/20 07:08:25;;;;;;;2.08;0.80;;;5.30;96.00;;;;;;4949953;28;20027;-72
2022/11/20 07:10:51;;;;;;;2.30;0.85;;;5.40;95.80;;;;;;4950306;28;20031;-73
2022/11/20 07:13:17;;;;;;;1.30;0.47;;;5.40;95.90;;;;;;4948172;28;20066;-73
2022/11/20 07:15:42;;;;;;;1.05;0.65;;;5.20;96.20;;;;;;4950499;28;20074;-72
2022/11/20 07:18:08;;;;;;;0.90;0.50;;;5.20;96.40;;;;;;4947567;28;20070;-73
2022/11/20 07:20:34;;;;;;;1.35;0.52;;;5.20;96.40;;;;;;4949115;29;20031;-73
2022/11/20 07:22:59;;;;;;;1.65;0.50;;;5.10;96.60;;;;;;4940234;28;20042;-73
2022/11/20 07:25:27;;;;;;;2.70;0.75;;;4.90;97.10;;;;;;4940983;28;20441;-72
2022/11/20 07:27:56;;;;;;;2.20;0.73;;;5.10;96.30;;;;;;4940175;28;20095;-73
2022/11/20 07:30:21;;;;;;;3.20;0.65;;;5.20;96.50;;;;;;4933555;28;20035;-73
2022/11/20 07:32:51;;;;;;;1.10;0.40;;;5.20;96.40;;;;;;4939120;28;20102;-73
2022/11/20 07:35:17;;;;;;;1.02;0.50;;;5.00;96.80;;;;;;4941689;28;20045;-73
2022/11/20 07:37:43;;;;;;;2.15;0.70;;;4.80;97.40;;;;;;4948559;28;20027;-73
2022/11/20 07:40:09;;;;;;;1.02;0.47;;;4.80;97.60;;;;;;4949879;28;20078;-72
2022/11/20 07:42:35;;;;;;;2.67;1.38;;;4.90;97.30;;;;;;4949346;28;20023;-73
2022/11/20 07:45:00;;;;;;;1.60;0.65;;;5.00;97.40;;;;;;4933883;28;20039;-73
2022/11/20 07:47:26;;;;;;;0.88;0.40;;;5.10;97.00;;;;;;4942804;28;20442;-73
2022/11/20 07:49:51;;;;;;;4.07;1.92;;;5.40;96.30;;;;;;4931123;28;20036;-72
2022/11/20 07:52:17;;;;;;;1.70;0.63;;;5.50;95.80;;;;;;4929122;28;20032;-73
2022/11/20 07:54:43;;;;;;;2.78;0.95;;;5.50;96.00;;;;;;4932336;28;20023;-73
2022/11/20 07:57:08;;;;;;;1.38;0.80;;;5.60;95.70;;;;;;4950555;28;20054;-73
2022/11/20 07:59:34;;;;;;;2.78;0.90;;;5.40;96.20;;;;;;4929920;28;20078;-73
2022/11/20 08:01:59;;;;;;;2.50;1.05;;;5.50;96.00;;;;;;4929327;28;20605;-72
2022/11/20 08:04:25;;;;;;;1.95;0.85;;;5.40;96.00;;;;;;4935218;28;20532;-73
2022/11/20 08:06:53;;;;;;;3.08;0.70;;;5.50;95.90;;;;;;4946696;28;20019;-73
2022/11/20 08:09:18;;;;;;;4.30;1.25;;;5.50;96.30;;;;;;4946847;28;20367;-73
2022/11/20 08:14:28;;;;;;;3.65;1.60;;;4.80;97.80;;;;;;4942199;28;20046;-73
2022/11/20 08:16:54;;;;;;;4.13;1.25;;;4.50;98.90;;;;;;4947049;28;20027;-73
2022/11/20 08:19:19;;;;;;;1.83;0.73;;;4.50;98.90;;;;;;4930725;28;20550;-73
2022/11/20 08:21:45;;;;;;;1.85;0.70;;;4.50;98.70;;;;;;4930975;28;20103;-73
2022/11/20 08:24:12;;;;;;;2.08;0.90;;;4.80;97.30;;;;;;4949316;28;20282;-72
2022/11/20 08:26:39;;;;;;;7.10;2.58;;;5.20;96.90;;;;;;4934880;28;20031;-72
2022/11/20 08:29:05;;;;;;;5.22;2.08;;;4.90;98.50;;;;;;4945495;28;20028;-73
2022/11/20 08:31:31;;;;;;;4.13;1.60;;;4.70;99.10;;;;;;4931290;29;20047;-73
2022/11/20 08:33:57;;;;;;;5.95;1.40;;;4.60;98.30;;;;;;4930548;28;20555;-73
2022/11/20 08:36:24;;;;;;;2.42;0.90;;;4.70;98.40;;;;;;4931875;28;20023;-73
2022/11/20 08:38:52;;;;;;;1.83;0.95;;;5.10;96.70;;;;;;4941505;28;20044;-73
2022/11/20 08:41:23;;;;;;;2.72;0.88;;;5.30;96.90;;;;;;4932033;28;20027;-73
2022/11/20 08:44:01;;;;;;;1.60;0.85;;;5.50;96.10;;;;;;4947076;28;20470;-73
2022/11/20 08:46:33;;;;;;;2.83;1.02;;;5.70;95.70;;;;;;4940224;28;20031;-73
2022/11/20 08:48:58;;;;;;;1.23;0.70;;;5.60;96.40;;;;;;4951938;28;20027;-73
2022/11/20 08:51:24;;;;;;;1.48;0.70;;;6.00;95.10;;;;;;4932788;28;20031;-73
2022/11/20 08:53:50;;;;;;;1.67;0.60;;;5.90;95.30;;;;;;4930672;29;20506;-72
2022/11/20 08:56:16;;;;;;;3.08;1.45;;;6.00;94.90;;;;;;4935200;28;20204;-73
2022/11/20 08:58:42;;;;;;;3.20;1.40;;;5.80;96.00;;;;;;4942355;28;20040;-73
2022/11/20 09:01:08;;;;;;;2.08;0.90;;;5.50;96.50;;;;;;4891865;29;1149102;-73
2022/11/20 09:03:33;;;;;;;1.50;0.85;;;5.40;96.00;;;;;;4942856;28;20032;-73
2022/11/20 09:06:01;;;;;;;2.03;1.10;;;5.40;96.50;;;;;;4932030;28;20034;-73
2022/11/20 09:08:27;;;;;;;2.47;0.70;;;5.80;95.20;;;;;;4946849;28;20032;-73
2022/11/20 09:10:54;;;;;;;1.63;0.70;;;6.10;94.40;;;;;;4931917;29;20087;-73
2022/11/20 09:13:21;;;;;;;1.98;0.98;;;6.30;94.30;;;;;;4938078;28;20038;-73
2022/11/20 09:15:47;;;;;;;4.75;2.10;;;6.30;94.90;;;;;;4942542;28;20497;-73
2022/11/20 09:18:13;;;;;;;3.35;1.42;;;5.70;96.10;;;;;;4939580;28;20131;-73
2022/11/20 09:20:38;;;;;;;1.55;0.63;;;5.50;96.00;;;;;;4936705;28;20063;-72
2022/11/20 09:23:04;;;;;;;2.22;0.95;;;5.80;95.00;;;;;;4930965;28;20387;-73
2022/11/20 09:25:30;;;;;;;3.88;1.00;;;6.00;95.00;;;;;;4931121;29;20040;-73
2022/11/20 09:27:59;;;;;;;8.15;3.10;;;6.00;95.50;;;;;;4940218;28;20042;-73
2022/11/20 09:30:25;;;;;;;1.23;0.63;;;5.80;95.70;;;;;;4949940;28;20577;-73
2022/11/20 09:32:51;;;;;;;0.60;0.30;;;6.00;95.10;;;;;;4946190;28;20474;-73
2022/11/20 09:35:17;;;;;;;1.48;0.82;;;6.10;95.30;;;;;;4934327;28;20119;-73
2022/11/20 09:37:43;;;;;;;2.85;1.20;;;6.20;95.20;;;;;;4942851;28;20039;-73
2022/11/20 09:40:19;;;;;;;3.35;1.60;;;6.00;95.80;;;;;;4947993;28;20046;-72
2022/11/20 09:43:00;;;;;;;4.28;2.00;;;5.60;96.80;;;;;;4947324;28;20489;-73
2022/11/20 09:45:46;;;;;;;4.10;1.98;;;5.40;97.20;;;;;;4948498;28;20099;-73
2022/11/20 09:48:15;;;;;;;4.07;1.73;;;5.40;97.70;;;;;;4949450;28;20045;-72
2022/11/20 09:50:47;;;;;;;3.17;1.38;;;5.40;97.80;;;;;;4933523;28;20039;-73
2022/11/20 09:53:21;;;;;;;2.80;1.33;;;5.40;98.00;;;;;;4930153;28;20161;-73
2022/11/20 09:55:47;;;;;;;2.97;1.60;;;5.40;97.90;;;;;;4930901;28;20043;-73
2022/11/20 09:58:29;;;;;;;4.43;2.00;;;5.40;97.80;;;;;;4941383;28;20348;-73
2022/11/20 10:01:00;;;;;;;2.60;1.13;;;5.50;98.10;;;;;;4931928;28;20495;-73
2022/11/20 10:03:42;;;;;;;3.53;1.58;;;5.40;98.70;;;;;;4946931;28;20042;-73
2022/11/20 10:06:12;;;;;;;3.03;1.30;;;5.40;97.80;;;;;;4949169;28;20265;-73
2022/11/20 10:08:44;;;;;;;5.03;1.88;;;5.50;98.10;;;;;;4944701;28;20055;-73
2022/11/20 10:11:39;;;;;;;2.75;1.45;;;5.40;98.40;;;;;;4931430;28;20032;-73
2022/11/20 10:14:31;;;;;;;5.13;1.40;;;5.50;98.50;;;;;;4940661;28;20047;-73
2022/11/20 10:17:23;;;;;;;3.33;1.55;;;5.70;97.30;;;;;;4934560;28;20036;-72
2022/11/20 10:20:00;;;;;;;9.45;2.75;;;5.90;97.00;;;;;;4939816;28;20624;-73
2022/11/20 10:22:35;;;;;;;3.08;1.60;;;6.10;97.00;;;;;;4938317;28;20078;-72
2022/11/20 10:25:15;;;;;;;3.13;1.65;;;6.30;96.80;;;;;;4930728;28;20387;-73
2022/11/20 10:27:55;;;;;;;2.90;1.17;;;6.40;96.70;;;;;;4940647;28;20034;-73
2022/11/20 10:30:24;;;;;;;5.25;1.55;;;6.50;97.20;;;;;;4947484;28;20134;-73
2022/11/20 10:32:55;;;;;;;4.28;1.35;;;6.60;97.30;;;;;;4947642;28;20508;-73
2022/11/20 10:35:40;;;;;;;3.50;1.90;;;6.70;97.50;;;;;;4949486;28;20042;-73
2022/11/20 10:38:31;;;;;;;3.10;1.50;;;6.90;97.00;;;;;;4935325;28;20440;-73
2022/11/20 10:43:50;;;;;;;2.78;1.25;;;7.20;96.60;;;;;;4932100;28;20053;-73
2022/11/20 10:46:22;;;;;;;3.72;2.17;;;7.40;96.40;;;;;;4930280;29;20392;-73
2022/11/20 10:48:49;;;;;;;3.83;1.40;;;7.40;97.00;;;;;;4947205;28;20070;-73
2022/11/20 10:51:20;;;;;;;2.97;1.25;;;7.40;97.30;;;;;;4950889;28;20036;-73
2022/11/20 10:53:56;;;;;;;4.80;1.77;;;7.50;97.40;;;;;;4948561;28;20375;-73
2022/11/20 10:56:35;;;;;;;4.85;2.67;;;7.40;97.10;;;;;;4948734;28;20039;-73
2022/11/20 10:59:47;;;;;;;27.05;13.93;;;7.40;96.90;;;;;;4944684;28;20040;-72
2022/11/20 11:02:20;;;;;;;8.32;4.05;;;7.60;97.20;;;;;;4944048;28;20481;-72
2022/11/20 11:04:51;;;;;;;8.87;3.63;;;7.80;97.00;;;;;;4929987;28;20036;-72
2022/11/20 11:07:25;;;;;;;11.10;3.83;;;8.00;96.40;;;;;;4945274;28;20031;-72
2022/11/20 11:09:54;;;;;;;7.55;3.47;;;8.10;96.20;;;;;;4946776;28;20023;-72
2022/11/20 11:12:25;;;;;;;6.68;2.83;;;8.10;95.90;;;;;;4931258;28;20097;-72
2022/11/20 11:14:53;;;;;;;227.30;90.07;;;8.20;96.20;;;;;;4937127;28;20023;-72
2022/11/20 11:17:30;;;;;;;43.45;21.13;;;8.30;96.20;;;;;;4930265;28;20114;-72
2022/11/20 11:19:59;;;;;;;28.05;13.30;;;8.50;96.30;;;;;;4930126;29;20035;-72
2022/11/20 11:22:27;;;;;;;48.08;26.63;;;8.80;96.20;;;;;;4929805;29;20035;-72
2022/11/20 11:24:53;;;;;;;24.02;13.82;;;9.00;96.00;;;;;;4929796;29;20389;-72
2022/11/20 11:27:19;;;;;;;18.63;9.10;;;8.90;96.00;;;;;;4945881;28;20027;-72
2022/11/20 11:29:46;;;;;;;24.20;14.75;;;9.10;95.90;;;;;;4946930;28;20438;-72
2022/11/20 11:32:21;;;;;;;15.35;9.73;;;8.90;95.30;;;;;;4944406;28;20550;-72
2022/11/20 11:35:01;;;;;;;21.42;13.57;;;8.90;95.40;;;;;;4928956;28;20052;-72
2022/11/20 11:37:33;;;;;;;19.58;13.23;;;9.10;95.60;;;;;;4945706;28;20131;-72
2022/11/20 11:39:59;;;;;;;12.85;8.75;;;9.10;95.50;;;;;;4944536;28;20040;-72
2022/11/20 11:42:25;;;;;;;9.60;6.78;;;9.20;95.30;;;;;;4929456;28;20042;-72
2022/11/20 11:45:06;;;;;;;6.55;4.10;;;9.10;95.00;;;;;;4932694;28;20494;-72
2022/11/20 11:47:43;;;;;;;8.80;5.30;;;9.10;94.90;;;;;;4936674;28;20028;-72
2022/11/20 11:50:09;;;;;;;6.90;4.00;;;9.20;95.40;;;;;;4929985;29;20451;-72
2022/11/20 11:52:56;;;;;;;21.27;11.95;;;9.40;95.30;;;;;;4932112;28;20019;-72
2022/11/20 11:55:43;;;;;;;6.00;3.85;;;9.60;95.60;;;;;;4934445;28;20120;-72
2022/11/20 11:58:23;;;;;;;10.07;5.88;;;9.60;94.70;;;;;;4953865;28;20030;-72
2022/11/20 12:00:56;;;;;;;29.67;18.00;;;9.50;94.70;;;;;;4937079;28;20062;-72
2022/11/20 12:03:35;;;;;;;37.03;20.60;;;9.60;94.60;;;;;;4943014;28;20372;-72
2022/11/20 12:06:13;;;;;;;7.40;3.22;;;9.60;94.40;;;;;;4946685;28;20038;-72
2022/11/20 12:09:05;;;;;;;8.57;3.08;;;9.50;94.10;;;;;;4933237;28;20394;-72
2022/11/20 12:11:37;;;;;;;3.13;1.73;;;9.50;94.60;;;;;;4938769;28;20042;-72
2022/11/20 12:14:15;;;;;;;4.72;2.33;;;9.60;94.10;;;;;;4939117;28;20482;-72
2022/11/20 12:16:41;;;;;;;21.40;16.83;;;9.60;94.20;;;;;;4951337;28;20466;-72
2022/11/20 12:19:14;;;;;;;11.25;8.07;;;9.80;94.60;;;;;;4951684;28;20461;-72
2022/11/20 12:21:51;;;;;;;5.68;3.60;;;10.00;94.70;;;;;;4948591;28;20490;-72
2022/11/20 12:24:42;;;;;;;322.05;159.57;;;10.10;94.60;;;;;;4951859;28;20418;-72
2022/11/20 12:27:17;;;;;;;76.63;43.17;;;10.10;94.30;;;;;;4934696;28;20036;-72
2022/11/20 12:30:08;;;;;;;26.80;15.43;;;10.00;94.20;;;;;;4938159;28;20139;-72
2022/11/20 12:32:37;;;;;;;9.40;5.07;;;10.20;93.90;;;;;;4936219;28;20526;-72
2022/11/20 12:35:02;;;;;;;5.95;3.50;;;10.20;94.30;;;;;;4949727;28;20031;-72
2022/11/20 12:37:53;;;;;;;5.25;3.55;;;10.30;94.00;;;;;;4932541;29;20146;-72
2022/11/20 12:40:56;;;;;;;3.78;2.17;;;10.10;94.00;;;;;;4933388;28;20374;-72
2022/11/20 12:46:39;;;;;;;4.60;3.67;;;10.00;93.80;;;;;;4941676;28;20521;-72
2022/11/20 12:49:18;;;;;;;4.10;2.08;;;10.10;94.00;;;;;;4950320;29;20042;-72
2022/11/20 12:52:26;;;;;;;3.75;1.92;;;10.20;94.50;;;;;;4931962;28;20102;-72
2022/11/20 12:55:10;;;;;;;3.92;1.70;;;10.30;94.10;;;;;;4936745;28;20127;-72
2022/11/20 12:57:51;;;;;;;5.38;2.60;;;10.10;93.50;;;;;;4948293;29;20106;-72
2022/11/20 13:00:21;;;;;;;6.18;4.13;;;10.00;93.60;;;;;;4945354;28;20035;-72
2022/11/20 13:03:08;;;;;;;9.77;5.82;;;10.10;93.60;;;;;;4948381;28;20063;-72
2022/11/20 13:06:07;;;;;;;3.67;1.58;;;10.20;93.30;;;;;;4928877;29;20038;-72
2022/11/20 13:08:37;;;;;;;9.63;5.63;;;10.20;93.60;;;;;;4929608;28;20070;-72
2022/11/20 13:11:20;;;;;;;8.40;5.00;;;10.20;93.50;;;;;;4935593;28;20594;-72
2022/11/20 13:13:58;;;;;;;6.90;3.63;;;10.40;93.60;;;;;;4933819;28;20050;-72
2022/11/20 13:16:40;;;;;;;4.93;3.28;;;10.40;93.80;;;;;;4938040;28;20183;-72
2022/11/20 13:19:11;;;;;;;6.68;3.45;;;10.40;93.20;;;;;;4956167;28;20119;-72